Time;durP1;ratioP1;P1;durP2;ratioP2;P2;SDS_P1;SDS_P2;PMS_P1;PMS_P2;Temp;Humidity;BMP_temperature;BMP_pressure;BME280_temperature;BME280_humidity;BME280_pressure;Samples;Min_cycle;Max_cycle;Signal;HPM_P1;HPM_P2
2023/07/07 00:00:50;;;;;;;4.10;3.57;;;23.00;45.00;;;;;;5005636;28;20554;-49
2023/07/07 00:03:16;;;;;;;5.50;3.40;;;23.00;45.10;;;;;;5013344;28;20597;-48
2023/07/07 00:05:43;;;;;;;3.70;3.23;;;22.90;45.60;;;;;;4987426;28;20437;-51
2023/07/07 00:08:09;;;;;;;3.70;3.40;;;22.70;46.10;;;;;;4993749;28;20199;-50
2023/07/07 00:10:34;;;;;;;3.50;3.20;;;22.60;46.10;;;;;;4992781;28;21004;-51
2023/07/07 00:13:00;;;;;;;4.33;3.87;;;22.70;46.10;;;;;;4993638;28;20422;-50
2023/07/07 00:15:26;;;;;;;4.37;3.93;;;22.70;46.20;;;;;;4992881;28;20194;-53
2023/07/07 00:17:51;;;;;;;6.20;4.60;;;22.70;46.10;;;;;;5000023;28;20273;-51
2023/07/07 00:20:17;;;;;;;5.67;3.30;;;22.60;46.10;;;;;;5006265;28;20583;-51
2023/07/07 00:22:44;;;;;;;3.43;3.13;;;22.60;46.00;;;;;;5012997;28;20198;-52
2023/07/07 00:25:09;;;;;;;4.43;3.77;;;22.60;45.80;;;;;;4999947;28;20438;-54
2023/07/07 00:27:36;;;;;;;4.20;3.10;;;22.60;45.80;;;;;;4991909;28;20436;-49
2023/07/07 00:30:03;;;;;;;3.70;3.10;;;22.60;45.80;;;;;;4992383;28;20256;-49
2023/07/07 00:32:30;;;;;;;3.73;3.37;;;22.50;45.90;;;;;;4993290;28;20434;-50
2023/07/07 00:34:56;;;;;;;3.67;3.37;;;22.50;45.90;;;;;;4992726;28;20888;-49
2023/07/07 00:37:21;;;;;;;3.50;3.20;;;22.40;45.90;;;;;;4993357;28;20433;-52
2023/07/07 00:39:47;;;;;;;3.80;3.40;;;22.40;46.20;;;;;;4992365;28;20190;-50
2023/07/07 00:42:13;;;;;;;4.87;4.03;;;22.40;46.20;;;;;;4993011;28;20607;-50
2023/07/07 00:45:16;;;;;;;4.73;4.10;;;22.30;46.10;;;;;;4992720;28;20198;-51
2023/07/07 00:47:55;;;;;;;3.93;3.53;;;22.30;46.20;;;;;;4993298;28;20305;-50
2023/07/07 00:50:23;;;;;;;5.07;3.67;;;22.10;46.30;;;;;;4992328;28;20438;-49
2023/07/07 00:52:49;;;;;;;4.17;3.77;;;22.10;46.60;;;;;;4991555;28;20457;-50
2023/07/07 00:55:22;;;;;;;3.90;3.50;;;22.00;46.50;;;;;;4992445;28;20532;-50
2023/07/07 00:57:48;;;;;;;5.37;3.93;;;22.00;46.50;;;;;;4992848;28;20513;-50
2023/07/07 01:00:14;;;;;;;4.77;4.20;;;22.00;46.70;;;;;;4992041;28;20580;-49
2023/07/07 01:02:45;;;;;;;5.17;4.67;;;22.00;46.90;;;;;;4992598;28;20210;-49
2023/07/07 01:05:10;;;;;;;6.00;4.57;;;22.00;47.00;;;;;;4999174;28;20418;-49
2023/07/07 01:07:43;;;;;;;4.47;4.07;;;22.00;47.40;;;;;;4992686;28;20504;-50
2023/07/07 01:10:10;;;;;;;10.07;3.90;;;22.00;47.60;;;;;;4990580;28;20294;-49
2023/07/07 01:12:35;;;;;;;5.60;3.50;;;22.00;47.70;;;;;;4992569;28;20433;-49
2023/07/07 01:15:02;;;;;;;3.63;3.33;;;21.90;47.80;;;;;;4992094;28;20432;-50
2023/07/07 01:17:46;;;;;;;5.80;4.03;;;21.90;47.90;;;;;;4996400;28;20320;-50
2023/07/07 01:20:44;;;;;;;7.13;4.63;;;21.80;47.70;;;;;;4983183;28;20484;-51
2023/07/07 01:23:49;;;;;;;4.70;3.43;;;21.80;47.70;;;;;;4980143;28;20442;-50
2023/07/07 01:26:41;;;;;;;4.50;4.10;;;21.70;47.70;;;;;;4981737;28;20777;-50
2023/07/07 01:29:33;;;;;;;4.97;3.93;;;21.60;47.80;;;;;;4991328;28;20975;-49
2023/07/07 01:32:06;;;;;;;4.43;3.60;;;21.60;47.80;;;;;;4992050;28;20524;-51
2023/07/07 01:34:32;;;;;;;4.07;3.60;;;21.50;48.10;;;;;;4991650;28;20437;-50
2023/07/07 01:36:57;;;;;;;6.00;4.00;;;21.50;48.50;;;;;;4992225;28;20429;-49
2023/07/07 01:39:25;;;;;;;5.77;4.10;;;21.50;48.60;;;;;;4991452;28;20191;-50
2023/07/07 01:42:00;;;;;;;5.00;4.00;;;21.40;48.50;;;;;;4991914;28;20231;-49
2023/07/07 01:44:34;;;;;;;4.10;3.70;;;21.30;48.40;;;;;;4991399;28;20509;-49
2023/07/07 01:47:23;;;;;;;4.33;3.43;;;21.30;48.40;;;;;;4990263;28;20429;-49
2023/07/07 01:49:57;;;;;;;4.87;4.33;;;21.30;48.40;;;;;;4991158;28;20434;-50
2023/07/07 01:52:37;;;;;;;5.67;4.20;;;21.30;48.50;;;;;;4992109;28;20429;-49
2023/07/07 01:55:27;;;;;;;5.40;3.80;;;21.20;48.50;;;;;;4991346;28;20456;-49
2023/07/07 01:57:56;;;;;;;4.57;4.10;;;21.20;48.70;;;;;;4991802;28;20434;-49
2023/07/07 02:00:23;;;;;;;4.90;4.00;;;21.10;48.90;;;;;;4990639;28;20552;-51
2023/07/07 02:02:51;;;;;;;3.93;3.63;;;21.10;49.00;;;;;;4991648;28;20916;-50
2023/07/07 02:05:17;;;;;;;6.87;4.50;;;21.10;49.20;;;;;;4996995;28;20434;-50
2023/07/07 02:07:43;;;;;;;6.27;4.50;;;21.10;49.20;;;;;;4991538;28;20422;-50
2023/07/07 02:10:09;;;;;;;10.37;7.30;;;21.10;49.00;;;;;;4990928;28;20972;-49
2023/07/07 02:12:35;;;;;;;9.33;5.63;;;21.00;48.90;;;;;;4991234;28;20226;-49
2023/07/07 02:15:01;;;;;;;5.67;5.07;;;21.00;48.90;;;;;;4989730;28;20488;-49
2023/07/07 02:17:28;;;;;;;7.03;4.40;;;21.10;49.10;;;;;;4995076;28;20371;-51
2023/07/07 02:19:54;;;;;;;4.30;3.87;;;21.10;49.00;;;;;;5003164;28;20252;-50
2023/07/07 02:22:20;;;;;;;5.80;4.50;;;21.10;49.00;;;;;;5010706;28;20435;-49
2023/07/07 02:24:46;;;;;;;4.80;4.30;;;21.00;49.10;;;;;;5001300;28;20431;-50
2023/07/07 02:27:11;;;;;;;7.57;4.30;;;21.00;49.20;;;;;;4989921;28;20233;-49
2023/07/07 02:29:38;;;;;;;3.90;3.40;;;20.80;49.60;;;;;;4990426;28;20198;-49
2023/07/07 02:32:04;;;;;;;5.60;4.30;;;20.80;49.90;;;;;;4991122;28;20190;-49
2023/07/07 02:34:30;;;;;;;4.30;3.57;;;20.70;50.10;;;;;;4990890;28;21187;-49
2023/07/07 02:36:56;;;;;;;4.50;3.57;;;20.60;50.20;;;;;;4991159;28;20418;-49
2023/07/07 02:39:21;;;;;;;8.23;4.37;;;20.60;50.20;;;;;;4990524;28;20615;-52
2023/07/07 02:41:47;;;;;;;4.47;3.80;;;20.60;50.20;;;;;;4989209;28;20298;-49
2023/07/07 02:44:13;;;;;;;3.90;3.50;;;20.70;50.40;;;;;;4990911;28;20253;-50
2023/07/07 02:46:39;;;;;;;5.30;3.63;;;20.70;50.40;;;;;;4991055;28;20194;-51
2023/07/07 02:49:05;;;;;;;6.73;4.60;;;20.60;50.40;;;;;;4990332;28;20465;-51
2023/07/07 02:51:30;;;;;;;5.23;2.90;;;20.60;50.40;;;;;;4990814;28;20425;-49
2023/07/07 02:53:57;;;;;;;5.60;4.23;;;20.60;50.30;;;;;;4990613;28;20186;-50
2023/07/07 02:56:22;;;;;;;4.80;3.77;;;20.60;50.20;;;;;;4991079;28;20202;-49
2023/07/07 02:58:48;;;;;;;4.70;3.90;;;20.60;50.10;;;;;;4990848;28;20471;-54
2023/07/07 03:01:18;;;;;;;4.83;4.00;;;20.60;50.00;;;;;;4990205;28;20335;-49
2023/07/07 03:03:48;;;;;;;4.10;3.70;;;20.60;50.00;;;;;;4994333;28;20963;-49
2023/07/07 03:06:17;;;;;;;4.67;4.20;;;20.50;50.10;;;;;;4993457;28;20513;-49
2023/07/07 03:08:43;;;;;;;4.50;3.90;;;20.50;50.30;;;;;;4989359;28;20552;-50
2023/07/07 03:11:12;;;;;;;4.43;4.03;;;20.40;50.10;;;;;;4990046;28;20960;-49
2023/07/07 03:13:38;;;;;;;4.03;3.63;;;20.50;50.10;;;;;;4990828;28;20417;-52
2023/07/07 03:16:20;;;;;;;4.20;3.80;;;20.50;49.90;;;;;;4990252;28;20972;-51
2023/07/07 03:18:51;;;;;;;6.43;4.53;;;20.50;49.90;;;;;;4998268;28;20441;-53
2023/07/07 03:21:19;;;;;;;8.33;3.83;;;20.40;49.90;;;;;;5009919;28;20994;-49
2023/07/07 03:23:45;;;;;;;6.37;3.70;;;20.40;50.10;;;;;;5008996;28;20442;-49
2023/07/07 03:26:13;;;;;;;4.60;4.20;;;20.30;50.10;;;;;;4990206;28;20429;-49
2023/07/07 03:28:39;;;;;;;7.70;3.90;;;20.30;50.20;;;;;;4990652;28;20434;-49
2023/07/07 03:31:27;;;;;;;4.77;4.17;;;20.30;50.20;;;;;;4989876;28;20521;-52
2023/07/07 03:33:55;;;;;;;4.40;4.00;;;20.40;50.10;;;;;;4993412;28;20421;-52
2023/07/07 03:36:23;;;;;;;3.83;3.50;;;20.30;50.10;;;;;;4992710;28;20442;-49
2023/07/07 03:38:49;;;;;;;4.13;3.63;;;20.30;50.10;;;;;;4994327;28;20434;-49
2023/07/07 03:41:18;;;;;;;6.20;3.93;;;20.30;50.20;;;;;;4993587;28;20489;-54
2023/07/07 03:43:46;;;;;;;3.70;3.40;;;20.30;50.20;;;;;;4994227;28;21080;-50
2023/07/07 03:46:15;;;;;;;4.13;3.80;;;20.20;50.40;;;;;;4993382;28;20437;-49
2023/07/07 03:48:41;;;;;;;4.17;3.87;;;20.20;50.50;;;;;;4994282;28;20441;-50
2023/07/07 03:51:08;;;;;;;4.43;3.87;;;20.20;50.50;;;;;;4993255;28;20947;-51
2023/07/07 03:53:34;;;;;;;3.97;3.57;;;20.20;50.40;;;;;;4994208;28;20425;-51
2023/07/07 03:56:00;;;;;;;3.47;3.20;;;20.20;50.90;;;;;;4993496;28;20432;-51
2023/07/07 03:58:26;;;;;;;3.60;3.30;;;20.20;50.40;;;;;;4994180;28;20249;-50
2023/07/07 04:00:53;;;;;;;4.93;4.43;;;20.20;50.30;;;;;;4993484;28;20270;-52
2023/07/07 04:03:19;;;;;;;3.97;3.57;;;20.20;50.30;;;;;;4992450;28;20430;-50
2023/07/07 04:05:47;;;;;;;4.77;4.23;;;20.20;50.40;;;;;;4998578;28;20815;-50
2023/07/07 04:08:15;;;;;;;4.73;4.33;;;20.20;50.40;;;;;;4994125;28;20430;-49
2023/07/07 04:10:41;;;;;;;5.00;4.00;;;20.10;50.40;;;;;;4992917;28;20433;-50
2023/07/07 04:13:07;;;;;;;4.57;4.17;;;20.10;50.50;;;;;;4993605;28;20485;-50
2023/07/07 04:15:33;;;;;;;7.37;4.90;;;20.10;50.70;;;;;;4992958;28;20629;-49
2023/07/07 04:17:59;;;;;;;4.73;4.20;;;20.20;50.80;;;;;;5000035;28;20452;-49
2023/07/07 04:20:25;;;;;;;4.30;3.90;;;20.10;50.80;;;;;;5007651;28;20226;-52
2023/07/07 04:22:51;;;;;;;4.20;3.90;;;20.20;50.90;;;;;;5013458;28;20494;-49
2023/07/07 04:25:17;;;;;;;3.70;3.40;;;20.20;51.10;;;;;;4999182;28;20456;-49
2023/07/07 04:27:44;;;;;;;4.87;3.77;;;20.10;51.00;;;;;;4993938;28;20193;-52
2023/07/07 04:30:11;;;;;;;4.93;4.40;;;20.10;51.00;;;;;;4990916;28;20493;-51
2023/07/07 04:32:38;;;;;;;6.20;4.33;;;20.10;51.10;;;;;;4993393;28;21016;-49
2023/07/07 04:35:04;;;;;;;4.83;3.87;;;19.90;51.60;;;;;;4993014;28;20787;-49
2023/07/07 04:37:31;;;;;;;5.17;4.70;;;19.90;51.70;;;;;;4993340;28;20430;-50
2023/07/07 04:39:56;;;;;;;4.93;4.43;;;20.00;51.50;;;;;;4992303;28;20470;-49
2023/07/07 04:42:22;;;;;;;5.47;3.80;;;19.90;51.50;;;;;;4993460;28;20469;-50
2023/07/07 04:44:48;;;;;;;8.57;4.47;;;19.70;52.40;;;;;;4992264;28;20195;-49
2023/07/07 04:47:13;;;;;;;5.73;4.80;;;19.40;53.00;;;;;;4993190;28;20202;-50
2023/07/07 04:49:39;;;;;;;7.10;4.73;;;19.00;53.90;;;;;;4992072;28;20214;-51
2023/07/07 04:52:05;;;;;;;6.70;4.10;;;18.90;54.70;;;;;;4993323;28;20193;-49
2023/07/07 04:54:31;;;;;;;4.97;4.03;;;18.80;54.90;;;;;;4992189;28;20281;-51
2023/07/07 04:56:56;;;;;;;4.67;4.27;;;18.70;55.10;;;;;;4990037;28;20876;-52
2023/07/07 04:59:22;;;;;;;5.43;4.80;;;18.30;56.00;;;;;;4992201;28;20199;-51
2023/07/07 05:01:47;;;;;;;5.93;4.40;;;18.50;56.00;;;;;;4992911;28;20230;-49
2023/07/07 05:04:13;;;;;;;5.17;4.67;;;18.60;55.50;;;;;;4998627;28;20537;-49
2023/07/07 05:06:39;;;;;;;6.93;4.90;;;18.90;54.80;;;;;;4992976;28;20198;-49
2023/07/07 05:09:10;;;;;;;5.27;4.40;;;19.20;54.20;;;;;;4991841;28;20663;-49
2023/07/07 05:11:35;;;;;;;6.20;4.60;;;19.30;54.00;;;;;;4992394;28;20437;-50
2023/07/07 05:14:02;;;;;;;5.00;4.50;;;19.30;53.90;;;;;;4992099;28;20989;-50
2023/07/07 05:16:32;;;;;;;6.17;4.70;;;19.30;54.20;;;;;;4992485;28;20234;-49
2023/07/07 05:18:57;;;;;;;6.10;4.50;;;19.60;53.80;;;;;;5000743;28;20424;-54
2023/07/07 05:21:24;;;;;;;5.67;4.90;;;19.60;53.70;;;;;;5012012;28;20494;-50
2023/07/07 05:23:54;;;;;;;11.50;4.43;;;19.80;53.90;;;;;;5009352;28;20194;-52
2023/07/07 05:26:27;;;;;;;4.43;4.03;;;19.90;53.60;;;;;;4991904;28;20441;-50
2023/07/07 05:28:54;;;;;;;4.47;4.10;;;20.20;53.30;;;;;;4991715;28;21226;-51
2023/07/07 05:31:20;;;;;;;6.43;5.13;;;20.40;52.70;;;;;;4992253;28;20418;-49
2023/07/07 05:33:46;;;;;;;5.20;4.30;;;20.60;52.30;;;;;;4992224;28;21033;-49
2023/07/07 05:36:12;;;;;;;4.87;3.93;;;20.80;51.90;;;;;;4991720;28;20529;-49
2023/07/07 05:38:39;;;;;;;3.97;3.63;;;20.80;51.40;;;;;;4991760;28;20433;-51
2023/07/07 05:41:05;;;;;;;8.90;4.90;;;20.60;51.20;;;;;;4991437;28;20231;-51
2023/07/07 05:43:31;;;;;;;6.20;4.33;;;20.60;51.30;;;;;;4992179;28;20492;-49
2023/07/07 05:45:59;;;;;;;7.03;4.53;;;20.70;51.50;;;;;;4991891;28;20476;-50
2023/07/07 05:48:24;;;;;;;4.77;3.97;;;20.60;52.10;;;;;;4992148;28;20195;-51
2023/07/07 05:50:52;;;;;;;6.33;4.20;;;20.80;51.70;;;;;;4991014;28;20428;-55
2023/07/07 05:53:18;;;;;;;5.47;4.97;;;21.00;51.40;;;;;;4991132;28;20217;-49
2023/07/07 05:55:46;;;;;;;4.17;3.67;;;21.10;51.20;;;;;;4990977;28;21043;-53
2023/07/07 05:58:14;;;;;;;6.33;4.70;;;21.20;50.50;;;;;;4991935;28;20448;-49
2023/07/07 06:00:40;;;;;;;3.77;3.30;;;21.00;50.20;;;;;;4990783;28;20491;-50
2023/07/07 06:03:05;;;;;;;5.83;4.10;;;20.90;50.90;;;;;;4991569;28;20426;-50
2023/07/07 06:05:31;;;;;;;8.20;4.20;;;21.00;50.60;;;;;;4997203;28;20425;-51
2023/07/07 06:07:57;;;;;;;6.43;3.67;;;21.20;50.60;;;;;;4991679;28;20190;-49
2023/07/07 06:10:23;;;;;;;4.53;4.07;;;21.50;50.20;;;;;;4990788;28;20269;-50
2023/07/07 06:12:49;;;;;;;4.70;4.17;;;21.70;50.70;;;;;;4991859;28;20547;-49
2023/07/07 06:15:14;;;;;;;4.93;4.37;;;21.70;49.80;;;;;;4991069;28;20194;-50
2023/07/07 06:17:40;;;;;;;6.40;4.70;;;21.90;49.40;;;;;;4997343;28;20193;-50
2023/07/07 06:20:06;;;;;;;4.90;3.93;;;22.20;49.10;;;;;;5001575;28;20228;-52
2023/07/07 06:22:32;;;;;;;10.93;4.57;;;22.10;47.70;;;;;;5011102;28;20580;-49
2023/07/07 06:24:59;;;;;;;3.37;3.07;;;22.20;48.50;;;;;;4999657;28;20432;-50
2023/07/07 06:27:24;;;;;;;6.00;4.67;;;22.40;47.80;;;;;;4991539;28;20194;-53
2023/07/07 06:29:50;;;;;;;7.83;4.30;;;22.80;47.30;;;;;;4990651;28;20964;-50
2023/07/07 06:32:15;;;;;;;5.53;3.63;;;23.10;46.80;;;;;;4991261;28;20274;-49
2023/07/07 06:34:41;;;;;;;5.07;3.90;;;23.30;46.30;;;;;;4990926;28;20926;-49
2023/07/07 06:37:06;;;;;;;11.97;4.17;;;23.50;45.40;;;;;;4991246;28;20198;-52
2023/07/07 06:39:32;;;;;;;6.17;4.00;;;23.60;44.90;;;;;;4988682;28;20261;-52
2023/07/07 06:42:00;;;;;;;6.67;4.60;;;23.70;44.10;;;;;;4991024;28;20301;-50
2023/07/07 06:44:25;;;;;;;12.47;4.50;;;23.70;44.10;;;;;;4990806;28;20219;-49
2023/07/07 06:46:51;;;;;;;11.50;5.97;;;23.70;44.10;;;;;;4989732;28;20959;-50
2023/07/07 06:49:17;;;;;;;8.43;3.70;;;23.80;44.10;;;;;;4990262;28;20205;-50
2023/07/07 06:51:42;;;;;;;5.23;3.70;;;24.10;44.20;;;;;;4991400;28;20229;-50
2023/07/07 06:54:08;;;;;;;5.20;4.47;;;24.30;43.60;;;;;;4990720;28;20199;-51
2023/07/07 06:56:33;;;;;;;8.13;4.70;;;24.40;43.20;;;;;;4990677;28;20201;-50
2023/07/07 06:58:59;;;;;;;4.30;3.47;;;24.40;43.00;;;;;;4990078;28;20670;-49
2023/07/07 07:01:24;;;;;;;5.33;4.10;;;24.30;42.90;;;;;;4990844;28;20245;-51
2023/07/07 07:03:50;;;;;;;5.40;4.60;;;24.50;43.00;;;;;;4995787;28;20186;-50
2023/07/07 07:06:16;;;;;;;6.90;3.93;;;24.80;42.50;;;;;;4992132;28;20203;-49
2023/07/07 07:08:42;;;;;;;3.90;3.50;;;25.00;41.90;;;;;;4993305;28;20221;-50
2023/07/07 07:11:07;;;;;;;6.73;5.07;;;25.40;41.40;;;;;;4994196;28;20913;-50
2023/07/07 07:13:33;;;;;;;12.40;4.80;;;25.80;41.40;;;;;;4993411;28;20638;-51
2023/07/07 07:15:59;;;;;;;5.93;4.10;;;26.10;40.60;;;;;;4993816;28;20277;-51
2023/07/07 07:18:25;;;;;;;5.37;4.07;;;26.20;40.60;;;;;;5001003;28;20194;-53
2023/07/07 07:20:54;;;;;;;6.40;4.10;;;26.40;40.50;;;;;;5012404;28;20489;-51
2023/07/07 07:23:20;;;;;;;6.33;4.37;;;26.70;40.30;;;;;;5014482;28;20441;-50
2023/07/07 07:25:46;;;;;;;6.30;4.87;;;27.00;39.90;;;;;;4996183;28;20430;-50
2023/07/07 07:28:13;;;;;;;5.67;3.90;;;27.20;39.10;;;;;;4994968;28;20432;-51
2023/07/07 07:30:39;;;;;;;4.67;4.27;;;27.40;38.60;;;;;;4993605;28;20908;-50
2023/07/07 07:33:12;;;;;;;4.53;4.13;;;27.60;38.40;;;;;;4994424;28;20513;-51
2023/07/07 07:35:38;;;;;;;5.27;4.77;;;27.70;38.40;;;;;;4993953;28;21044;-53
2023/07/07 07:38:04;;;;;;;5.83;4.07;;;27.80;38.60;;;;;;4994690;28;20449;-52
2023/07/07 07:40:30;;;;;;;8.00;4.33;;;28.00;38.00;;;;;;4991918;28;20214;-52
2023/07/07 07:42:55;;;;;;;4.77;4.37;;;28.20;37.70;;;;;;4994568;28;20264;-52
2023/07/07 07:45:22;;;;;;;4.90;4.30;;;28.40;37.10;;;;;;4993855;28;20190;-54
2023/07/07 07:47:48;;;;;;;6.93;4.30;;;28.60;37.10;;;;;;4994433;28;20282;-54
2023/07/07 07:50:15;;;;;;;5.00;4.30;;;28.70;36.70;;;;;;4993573;28;20564;-53
2023/07/07 07:52:41;;;;;;;4.57;4.17;;;28.90;36.50;;;;;;4994188;28;20895;-54
2023/07/07 07:55:07;;;;;;;6.00;4.60;;;29.00;36.40;;;;;;4993351;28;20441;-53
2023/07/07 07:57:33;;;;;;;4.83;4.33;;;29.20;36.70;;;;;;4994151;28;20608;-52
2023/07/07 07:59:59;;;;;;;4.50;4.10;;;29.20;36.10;;;;;;4993003;28;20426;-53
2023/07/07 08:02:24;;;;;;;4.97;4.47;;;29.10;36.30;;;;;;4994311;28;20194;-56
2023/07/07 08:04:50;;;;;;;9.13;4.37;;;29.40;36.20;;;;;;5000516;28;20194;-54
2023/07/07 08:07:16;;;;;;;5.43;4.13;;;29.70;36.00;;;;;;4992408;28;20233;-51
2023/07/07 08:09:41;;;;;;;5.07;4.27;;;29.90;36.00;;;;;;4993103;28;21111;-57
2023/07/07 08:12:09;;;;;;;8.53;5.17;;;30.20;35.80;;;;;;4994054;28;20205;-55
2023/07/07 08:14:36;;;;;;;6.20;5.60;;;30.40;35.30;;;;;;4992913;28;20195;-52
2023/07/07 08:17:11;;;;;;;6.53;5.00;;;30.50;35.10;;;;;;4994033;28;20896;-56
2023/07/07 08:19:38;;;;;;;5.07;4.40;;;30.70;34.50;;;;;;5005564;28;20772;-54
2023/07/07 08:22:07;;;;;;;8.70;4.87;;;30.60;34.70;;;;;;5012999;28;20850;-53
2023/07/07 08:24:43;;;;;;;7.00;4.73;;;30.80;34.50;;;;;;5005270;28;20983;-56
2023/07/07 08:27:09;;;;;;;4.93;4.43;;;31.00;34.30;;;;;;4993494;28;20438;-54
2023/07/07 08:29:35;;;;;;;5.67;4.60;;;31.00;34.00;;;;;;4992507;28;20425;-52
2023/07/07 08:32:00;;;;;;;6.30;5.20;;;30.80;34.20;;;;;;4993436;28;20437;-56
2023/07/07 08:34:26;;;;;;;5.77;4.80;;;30.60;34.50;;;;;;4991544;28;20281;-55
2023/07/07 08:36:59;;;;;;;8.23;5.20;;;30.30;34.60;;;;;;4993433;28;20194;-56
2023/07/07 08:39:26;;;;;;;5.60;5.10;;;30.30;35.20;;;;;;4992401;28;20434;-56
2023/07/07 08:42:02;;;;;;;6.20;4.80;;;30.60;35.10;;;;;;4992961;28;20600;-57
2023/07/07 08:44:31;;;;;;;14.93;5.03;;;31.00;34.60;;;;;;4993099;28;20461;-56
2023/07/07 08:47:12;;;;;;;6.73;5.50;;;31.40;33.80;;;;;;4993342;28;20597;-57
2023/07/07 08:50:01;;;;;;;8.07;5.37;;;31.70;33.60;;;;;;4992239;28;20433;-56
2023/07/07 08:52:52;;;;;;;6.07;4.60;;;32.00;33.00;;;;;;4993408;28;20442;-57
2023/07/07 08:55:43;;;;;;;5.80;5.20;;;32.00;32.50;;;;;;4992761;28;20441;-57
2023/07/07 08:58:17;;;;;;;5.67;5.17;;;32.10;32.50;;;;;;4992747;28;20460;-58
2023/07/07 09:01:04;;;;;;;5.37;4.87;;;32.30;31.70;;;;;;4990770;28;20473;-57
2023/07/07 09:03:39;;;;;;;5.80;5.20;;;32.60;31.40;;;;;;4994844;28;20808;-57
2023/07/07 09:06:19;;;;;;;5.70;5.20;;;32.80;31.00;;;;;;4996084;28;20460;-56
2023/07/07 09:08:44;;;;;;;6.10;5.50;;;33.00;29.50;;;;;;4992342;28;20445;-58
2023/07/07 09:11:13;;;;;;;5.93;5.33;;;33.20;29.10;;;;;;4992234;28;20529;-56
2023/07/07 09:13:40;;;;;;;10.70;6.77;;;33.20;27.00;;;;;;4992774;28;20194;-54
2023/07/07 09:16:14;;;;;;;6.80;6.10;;;32.80;25.90;;;;;;4991808;28;20469;-57
2023/07/07 09:19:18;;;;;;;7.00;6.30;;;32.40;26.90;;;;;;4999095;28;20434;-56
2023/07/07 09:21:50;;;;;;;7.30;5.97;;;32.70;27.10;;;;;;5010752;28;20492;-57
2023/07/07 09:24:24;;;;;;;7.90;5.70;;;32.70;26.70;;;;;;5006272;28;20494;-59
2023/07/07 09:26:54;;;;;;;16.30;7.87;;;33.00;26.60;;;;;;4992416;28;20426;-58
2023/07/07 09:29:33;;;;;;;29.50;10.13;;;33.20;25.70;;;;;;4990107;28;20437;-57
2023/07/07 09:32:02;;;;;;;8.30;6.33;;;33.00;25.50;;;;;;4992211;28;20871;-57
2023/07/07 09:34:29;;;;;;;8.07;6.40;;;33.40;25.90;;;;;;4992033;28;20853;-56
2023/07/07 09:37:01;;;;;;;6.90;6.20;;;33.20;25.20;;;;;;4992185;28;20421;-57
2023/07/07 09:39:52;;;;;;;19.00;6.30;;;33.10;25.50;;;;;;4991353;28;20433;-56
2023/07/07 09:42:32;;;;;;;29.73;8.00;;;33.10;25.70;;;;;;4992543;28;20448;-57
2023/07/07 09:45:23;;;;;;;8.00;7.00;;;33.30;25.00;;;;;;4991789;28;20474;-57
2023/07/07 09:48:02;;;;;;;6.70;6.00;;;33.40;25.20;;;;;;4992049;28;20548;-55
2023/07/07 09:50:54;;;;;;;8.33;6.70;;;33.70;25.80;;;;;;4991269;28;20429;-55
2023/07/07 09:53:31;;;;;;;13.43;7.40;;;34.10;25.80;;;;;;4992337;28;20902;-55
2023/07/07 09:55:58;;;;;;;7.87;7.10;;;34.40;24.80;;;;;;4989893;28;20449;-54
2023/07/07 09:58:50;;;;;;;7.67;6.97;;;34.60;25.30;;;;;;4991446;28;20433;-55
2023/07/07 10:01:17;;;;;;;8.93;7.30;;;34.80;25.10;;;;;;4991195;28;20496;-55
2023/07/07 10:03:48;;;;;;;7.40;6.70;;;35.00;25.60;;;;;;4995342;28;20436;-55
2023/07/07 10:06:31;;;;;;;8.80;7.67;;;35.30;24.90;;;;;;4991402;28;20487;-55
2023/07/07 10:08:57;;;;;;;8.77;7.87;;;35.60;25.00;;;;;;4990667;28;21007;-54
2023/07/07 10:11:32;;;;;;;7.93;7.23;;;36.00;24.80;;;;;;4991744;28;20513;-57
2023/07/07 10:13:59;;;;;;;7.43;6.57;;;36.30;24.60;;;;;;4991436;28;20249;-55
2023/07/07 10:16:34;;;;;;;9.00;7.50;;;36.30;24.70;;;;;;4991391;28;21728;-55
2023/07/07 10:19:01;;;;;;;8.20;6.93;;;35.80;24.70;;;;;;5000415;28;20436;-54
2023/07/07 10:21:27;;;;;;;8.00;7.23;;;35.30;24.80;;;;;;5011062;28;20954;-55
2023/07/07 10:23:53;;;;;;;8.37;7.57;;;35.20;25.20;;;;;;5007089;28;20463;-55
2023/07/07 10:26:19;;;;;;;12.10;7.17;;;35.10;25.30;;;;;;4990939;28;20205;-56
2023/07/07 10:28:47;;;;;;;8.90;8.10;;;35.10;25.70;;;;;;4990927;28;20206;-55
2023/07/07 10:31:14;;;;;;;9.90;8.93;;;35.00;25.10;;;;;;4990728;28;20425;-56
2023/07/07 10:33:41;;;;;;;9.87;8.97;;;35.20;24.80;;;;;;4991260;28;21629;-56
2023/07/07 10:36:40;;;;;;;8.80;8.00;;;35.40;24.40;;;;;;4990650;28;20495;-55
2023/07/07 10:39:08;;;;;;;9.37;8.57;;;35.40;24.10;;;;;;4985958;28;20452;-55
2023/07/07 10:41:34;;;;;;;8.93;8.07;;;35.30;24.00;;;;;;4990903;28;20977;-55
2023/07/07 10:43:59;;;;;;;9.37;8.47;;;35.20;24.00;;;;;;4990594;28;20425;-55
2023/07/07 10:46:25;;;;;;;9.53;8.53;;;35.30;23.50;;;;;;4991038;28;20198;-56
2023/07/07 10:48:55;;;;;;;9.53;8.73;;;35.70;23.70;;;;;;4990360;28;20592;-56
2023/07/07 10:51:33;;;;;;;12.97;8.73;;;35.80;23.40;;;;;;4990886;28;20190;-56
2023/07/07 10:54:21;;;;;;;12.10;9.90;;;35.80;23.60;;;;;;4990727;28;20524;-54
2023/07/07 10:56:49;;;;;;;10.73;9.63;;;35.60;22.60;;;;;;4991252;28;20727;-55
2023/07/07 11:00:05;;;;;;;12.60;9.97;;;35.30;22.70;;;;;;4990086;28;21291;-56
2023/07/07 11:03:03;;;;;;;11.10;10.00;;;35.80;22.90;;;;;;4969123;28;20513;-56
2023/07/07 11:05:57;;;;;;;10.40;9.43;;;36.10;21.80;;;;;;4996339;28;20444;-56
2023/07/07 11:08:49;;;;;;;9.33;8.50;;;36.20;22.40;;;;;;4990732;28;20921;-56
2023/07/07 11:11:23;;;;;;;8.40;7.60;;;36.10;22.80;;;;;;4990426;28;20460;-56
2023/07/07 11:14:20;;;;;;;9.87;8.17;;;35.30;23.10;;;;;;4991221;28;20433;-56
2023/07/07 11:16:58;;;;;;;9.63;8.63;;;35.80;23.00;;;;;;4986333;28;20680;-56
2023/07/07 11:19:38;;;;;;;9.40;8.47;;;36.50;22.30;;;;;;4989808;28;20439;-56
2023/07/07 11:22:23;;;;;;;15.67;8.73;;;36.90;21.80;;;;;;5010541;28;20828;-56
2023/07/07 11:25:17;;;;;;;10.17;9.17;;;36.70;21.80;;;;;;5000206;28;20452;-56
2023/07/07 11:28:09;;;;;;;8.63;7.83;;;36.10;21.90;;;;;;4991086;28;20445;-57
2023/07/07 11:31:02;;;;;;;9.30;8.37;;;36.20;22.10;;;;;;4990446;28;20445;-56
2023/07/07 11:33:48;;;;;;;10.20;9.20;;;36.60;21.00;;;;;;4990479;28;20495;-56
2023/07/07 11:36:28;;;;;;;9.80;8.90;;;36.90;21.30;;;;;;4990083;28;20808;-56
2023/07/07 11:39:05;;;;;;;9.53;8.73;;;37.30;21.00;;;;;;4990434;28;20436;-56
2023/07/07 11:41:49;;;;;;;9.53;8.47;;;37.50;21.70;;;;;;4990758;28;20568;-55
2023/07/07 11:45:10;;;;;;;13.40;8.90;;;37.60;21.50;;;;;;4988295;28;20437;-56
2023/07/07 11:47:57;;;;;;;10.87;9.07;;;37.60;21.30;;;;;;4957511;28;20443;-56
2023/07/07 11:50:53;;;;;;;15.60;9.20;;;37.70;21.20;;;;;;4990045;28;20436;-56
2023/07/07 11:53:42;;;;;;;10.30;9.30;;;37.60;21.10;;;;;;4990910;28;20433;-58
2023/07/07 11:56:29;;;;;;;8.87;7.97;;;37.50;20.80;;;;;;4990047;28;20924;-56
2023/07/07 11:59:25;;;;;;;10.00;9.10;;;37.60;20.60;;;;;;4993821;28;20443;-56
2023/07/07 12:01:53;;;;;;;8.97;8.13;;;37.60;20.40;;;;;;4982826;28;20984;-56
2023/07/07 12:04:39;;;;;;;23.17;8.73;;;38.20;20.50;;;;;;5000412;28;20412;-56
2023/07/07 12:07:38;;;;;;;9.03;8.13;;;38.50;19.90;;;;;;4994192;28;20421;-56
2023/07/07 12:10:27;;;;;;;11.43;8.93;;;38.70;20.60;;;;;;4992523;28;20863;-56
2023/07/07 12:12:55;;;;;;;9.40;8.50;;;38.20;20.00;;;;;;4993809;28;20441;-56
2023/07/07 12:15:26;;;;;;;10.67;8.53;;;38.00;20.70;;;;;;4993143;28;20433;-56
2023/07/07 12:18:05;;;;;;;9.30;8.37;;;38.20;20.40;;;;;;5000630;28;20482;-56
2023/07/07 12:20:36;;;;;;;11.37;9.20;;;38.00;20.40;;;;;;5008640;28;20517;-55
2023/07/07 12:23:04;;;;;;;10.83;9.77;;;37.50;20.50;;;;;;5013386;28;20435;-56
2023/07/07 12:25:30;;;;;;;9.70;8.70;;;37.20;20.80;;;;;;4997243;28;20991;-56
2023/07/07 12:27:57;;;;;;;10.33;9.33;;;37.40;20.70;;;;;;4993281;28;20429;-56
2023/07/07 12:30:28;;;;;;;10.63;9.60;;;37.50;20.30;;;;;;4993212;28;20457;-56
2023/07/07 12:32:54;;;;;;;9.87;8.90;;;37.20;20.90;;;;;;4993500;28;20468;-56
2023/07/07 12:35:41;;;;;;;9.77;8.80;;;37.60;20.70;;;;;;4993086;28;20429;-56
2023/07/07 12:38:21;;;;;;;20.60;10.07;;;38.10;20.60;;;;;;4991691;28;20529;-56
2023/07/07 12:40:48;;;;;;;9.13;8.23;;;38.00;20.30;;;;;;4992941;28;20505;-56
2023/07/07 12:43:36;;;;;;;12.00;8.70;;;37.50;20.80;;;;;;4992996;28;20433;-57
2023/07/07 12:46:16;;;;;;;9.70;8.80;;;37.50;20.90;;;;;;4992880;28;20472;-56
2023/07/07 12:48:48;;;;;;;9.03;8.23;;;37.80;20.60;;;;;;4993242;28;20437;-56
2023/07/07 12:51:17;;;;;;;10.60;9.53;;;37.60;20.10;;;;;;4992735;28;20511;-56
2023/07/07 12:53:46;;;;;;;10.30;9.20;;;37.50;20.80;;;;;;4992969;28;20429;-56
2023/07/07 12:56:32;;;;;;;9.47;8.57;;;37.70;20.40;;;;;;4992583;28;20425;-56
2023/07/07 12:58:59;;;;;;;9.63;8.73;;;38.00;19.70;;;;;;4992452;28;20528;-56
2023/07/07 13:01:41;;;;;;;9.90;8.90;;;38.00;20.10;;;;;;4993078;28;20493;-56
2023/07/07 13:04:10;;;;;;;9.13;8.27;;;38.40;20.10;;;;;;4998110;28;21474;-56
2023/07/07 13:06:57;;;;;;;10.60;9.57;;;38.60;21.00;;;;;;4991627;28;20481;-56